createdAt,value
2019-02-19T00:02:19.875Z,113.63
2019-02-19T00:04:51.524Z,98.90
2019-02-19T00:07:23.222Z,97.43
2019-02-19T00:09:55.800Z,106.53
2019-02-19T00:12:27.500Z,104.73
2019-02-19T00:15:07.730Z,97.37
2019-02-19T00:17:32.471Z,102.57
2019-02-19T00:20:04.150Z,107.93
2019-02-19T00:22:36.840Z,100.87
2019-02-19T00:25:08.467Z,100.60
2019-02-19T00:27:40.073Z,97.83
2019-02-19T00:30:11.681Z,103.03
2019-02-19T00:32:43.354Z,99.43
2019-02-19T00:35:15.033Z,97.90
2019-02-19T00:37:46.616Z,97.10
2019-02-19T00:40:18.221Z,96.47
2019-02-19T00:42:49.879Z,87.43
2019-02-19T00:45:21.479Z,92.30
2019-02-19T00:47:53.102Z,85.27
2019-02-19T00:50:24.688Z,85.17
2019-02-19T00:52:56.350Z,84.87
2019-02-19T00:55:27.932Z,87.77
2019-02-19T00:57:59.547Z,88.93
2019-02-19T01:00:31.132Z,89.53
2019-02-19T01:03:02.797Z,86.80
2019-02-19T01:05:34.469Z,84.33
2019-02-19T01:08:06.088Z,86.73
2019-02-19T01:10:37.753Z,80.33
2019-02-19T01:13:09.664Z,82.40
2019-02-19T01:15:41.355Z,74.97
2019-02-19T01:18:13.142Z,77.30
2019-02-19T01:20:44.730Z,81.97
2019-02-19T01:23:16.431Z,81.87
2019-02-19T01:25:48.986Z,83.97
2019-02-19T01:28:20.601Z,82.33
2019-02-19T01:30:52.199Z,74.63
2019-02-19T01:33:23.868Z,73.80
2019-02-19T01:35:55.496Z,72.30
2019-02-19T01:38:27.125Z,72.10
2019-02-19T01:40:58.734Z,76.63
2019-02-19T01:43:30.351Z,84.30
2019-02-19T01:46:01.962Z,81.47
2019-02-19T01:48:33.623Z,80.53
2019-02-19T01:51:05.220Z,83.00
2019-02-19T01:53:36.903Z,83.60
2019-02-19T01:56:08.520Z,85.77
2019-02-19T01:58:40.141Z,86.40
2019-02-19T02:01:12.047Z,87.60
2019-02-19T02:03:43.997Z,89.23
2019-02-19T02:06:15.909Z,88.03
2019-02-19T02:08:49.120Z,87.60
2019-02-19T02:11:20.705Z,88.97
2019-02-19T02:13:53.292Z,92.77
2019-02-19T02:16:24.892Z,92.13
2019-02-19T02:18:56.566Z,89.17
2019-02-19T02:21:28.161Z,87.03
2019-02-19T02:23:59.765Z,82.63
2019-02-19T02:26:31.510Z,87.50
2019-02-19T02:29:03.175Z,87.93
2019-02-19T02:31:34.877Z,88.77
2019-02-19T02:34:06.600Z,91.17
2019-02-19T02:36:38.227Z,91.90
2019-02-19T02:39:09.952Z,88.60
2019-02-19T02:41:41.597Z,94.70
2019-02-19T02:44:13.263Z,100.03
2019-02-19T02:46:44.866Z,102.73
2019-02-19T02:49:16.473Z,94.50
2019-02-19T02:51:48.058Z,91.20
2019-02-19T02:54:19.690Z,89.27
2019-02-19T02:56:51.285Z,95.67
2019-02-19T02:59:22.898Z,93.43
2019-02-19T03:01:54.505Z,93.03
2019-02-19T03:04:26.124Z,98.43
2019-02-19T03:07:16.625Z,110.30
2019-02-19T03:09:48.254Z,104.17
2019-02-19T03:12:19.920Z,106.70
2019-02-19T03:14:51.524Z,107.90
2019-02-19T03:17:23.123Z,112.40
2019-02-19T03:19:54.735Z,111.97
2019-02-19T03:22:26.341Z,114.20
2019-02-19T03:24:58.007Z,114.87
2019-02-19T03:27:29.656Z,123.63
2019-02-19T03:30:01.263Z,140.60
2019-02-19T03:32:33.321Z,146.20
2019-02-19T03:35:05.060Z,129.83
2019-02-19T03:37:36.742Z,132.47
2019-02-19T03:40:08.664Z,133.53
2019-02-19T03:42:40.422Z,131.13
2019-02-19T03:45:12.477Z,133.47
2019-02-19T03:47:44.239Z,131.30
2019-02-19T03:50:16.219Z,132.47
2019-02-19T03:52:47.821Z,131.47
2019-02-19T03:55:19.435Z,122.97
2019-02-19T03:57:51.127Z,113.47
2019-02-19T04:00:22.721Z,120.37
2019-02-19T04:02:54.339Z,118.93
2019-02-19T04:05:26.065Z,112.53
2019-02-19T04:07:57.733Z,111.83
2019-02-19T04:10:29.362Z,109.90
2019-02-19T04:13:00.944Z,107.50
2019-02-19T04:15:32.639Z,111.33
2019-02-19T04:18:04.293Z,110.83
2019-02-19T04:20:35.876Z,98.33
2019-02-19T04:23:07.545Z,102.27
2019-02-19T04:25:39.265Z,106.00
2019-02-19T04:28:11.121Z,106.70
2019-02-19T04:30:43.131Z,106.90
2019-02-19T04:33:14.733Z,108.90
2019-02-19T04:35:46.388Z,103.73
2019-02-19T04:38:17.983Z,101.00
2019-02-19T04:40:49.633Z,100.97
2019-02-19T04:43:21.294Z,98.60
2019-02-19T04:45:52.906Z,98.67
2019-02-19T04:48:24.494Z,97.83
2019-02-19T04:50:56.178Z,106.87
2019-02-19T04:53:27.784Z,103.50
2019-02-19T04:55:59.386Z,99.40
2019-02-19T04:58:31.046Z,99.70
2019-02-19T05:01:02.718Z,98.53
2019-02-19T05:03:34.319Z,99.87
2019-02-19T05:06:05.941Z,95.63
2019-02-19T05:08:38.598Z,92.27
2019-02-19T05:11:10.295Z,91.17
2019-02-19T05:13:43.205Z,88.67
2019-02-19T05:16:14.829Z,91.97
2019-02-19T05:18:46.423Z,93.90
2019-02-19T05:21:18.045Z,92.37
2019-02-19T05:23:49.702Z,90.20
2019-02-19T05:26:21.392Z,92.13
2019-02-19T05:28:53.009Z,91.50
2019-02-19T05:31:24.643Z,90.80
2019-02-19T05:33:56.319Z,95.20
2019-02-19T05:36:28.108Z,93.70
2019-02-19T05:38:59.835Z,104.93
2019-02-19T05:41:31.490Z,96.13
2019-02-19T05:44:03.166Z,91.47
2019-02-19T05:46:34.775Z,93.77
2019-02-19T05:49:06.378Z,98.30
2019-02-19T05:51:37.998Z,95.17
2019-02-19T05:54:09.671Z,95.90
2019-02-19T05:56:41.469Z,94.53
2019-02-19T05:59:13.230Z,90.03
2019-02-19T06:01:44.821Z,90.63
2019-02-19T06:04:16.526Z,89.40
2019-02-19T06:06:48.184Z,92.57
2019-02-19T06:09:19.958Z,102.00
2019-02-19T06:11:51.577Z,102.10
2019-02-19T06:14:23.235Z,98.93
2019-02-19T06:16:58.602Z,105.70
2019-02-19T06:19:28.191Z,98.67
2019-02-19T06:21:59.790Z,96.87
2019-02-19T06:24:31.483Z,98.10
2019-02-19T06:27:03.101Z,97.27
2019-02-19T06:29:34.716Z,96.77
2019-02-19T06:32:06.422Z,98.10
2019-02-19T06:34:38.030Z,100.33
2019-02-19T06:37:09.744Z,102.40
2019-02-19T06:39:41.440Z,99.43
2019-02-19T06:42:13.365Z,103.67
2019-02-19T06:44:44.990Z,104.40
2019-02-19T06:47:16.600Z,94.57
2019-02-19T06:49:48.274Z,97.30
2019-02-19T06:52:19.901Z,96.80
2019-02-19T06:54:51.562Z,97.47
2019-02-19T06:57:24.164Z,94.00
2019-02-19T06:59:55.845Z,86.50
2019-02-19T07:02:58.215Z,83.83
2019-02-19T07:05:29.880Z,75.30
2019-02-19T07:08:01.958Z,85.63
2019-02-19T07:10:33.621Z,58.37
2019-02-19T07:13:05.300Z,61.70
2019-02-19T07:15:36.926Z,58.50
2019-02-19T07:18:08.612Z,56.77
2019-02-19T07:20:40.493Z,53.87
2019-02-19T07:23:12.129Z,46.27
2019-02-19T07:25:43.734Z,46.10
2019-02-19T07:28:15.343Z,44.77
2019-02-19T07:30:46.935Z,43.13
2019-02-19T07:33:18.549Z,41.07
2019-02-19T07:35:50.209Z,37.73
2019-02-19T07:38:21.826Z,34.50
2019-02-19T07:40:53.430Z,51.97
2019-02-19T07:43:25.043Z,56.53
2019-02-19T07:45:56.692Z,37.53
2019-02-19T07:48:28.308Z,41.30
2019-02-19T07:50:59.894Z,38.53
2019-02-19T07:53:31.577Z,39.77
2019-02-19T07:56:03.182Z,35.50
2019-02-19T07:58:34.815Z,36.30
2019-02-19T08:01:06.499Z,36.20
2019-02-19T08:03:38.181Z,42.00
2019-02-19T08:06:09.769Z,34.50
2019-02-19T08:08:41.485Z,45.67
2019-02-19T08:11:13.362Z,33.93
2019-02-19T08:13:44.970Z,40.60
2019-02-19T08:16:16.635Z,37.27
2019-02-19T08:18:48.323Z,40.93
2019-02-19T08:21:21.615Z,54.07
2019-02-19T08:23:53.303Z,39.60
2019-02-19T08:26:24.902Z,41.40
2019-02-19T08:29:04.221Z,42.17
2019-02-19T08:31:29.894Z,36.10
2019-02-19T08:34:01.569Z,42.80
2019-02-19T08:36:33.241Z,34.13
2019-02-19T08:39:05.516Z,30.27
2019-02-19T08:41:37.597Z,29.00
2019-02-19T08:44:09.548Z,24.77
2019-02-19T08:46:41.454Z,24.00
2019-02-19T08:49:13.348Z,27.27
2019-02-19T08:51:45.031Z,25.13
2019-02-19T08:54:16.638Z,24.57
2019-02-19T08:56:48.233Z,25.03
2019-02-19T08:59:19.842Z,23.10
2019-02-19T09:01:51.463Z,21.67
2019-02-19T09:04:23.048Z,24.33
2019-02-19T09:06:54.713Z,25.87
2019-02-19T09:09:26.398Z,23.43
2019-02-19T09:11:58.062Z,23.87
2019-02-19T09:14:29.689Z,22.47
2019-02-19T09:17:01.319Z,22.40
2019-02-19T09:19:32.999Z,24.03
2019-02-19T09:22:04.668Z,24.17
2019-02-19T09:24:36.291Z,24.07
2019-02-19T09:27:07.898Z,23.33
2019-02-19T09:29:39.617Z,24.37
2019-02-19T09:32:11.434Z,22.67
2019-02-19T09:34:43.294Z,22.97
2019-02-19T09:37:14.880Z,20.97
2019-02-19T09:39:46.496Z,22.17
2019-02-19T09:42:18.154Z,22.17
2019-02-19T09:44:49.822Z,22.13
2019-02-19T09:47:21.432Z,20.13
2019-02-19T09:49:53.049Z,21.83
2019-02-19T09:52:24.645Z,22.10
2019-02-19T09:54:56.249Z,21.37
2019-02-19T09:57:27.911Z,23.03
2019-02-19T09:59:59.526Z,22.00
2019-02-19T10:02:31.229Z,21.77
2019-02-19T10:05:03.134Z,22.17
2019-02-19T10:07:34.787Z,23.23
2019-02-19T10:10:08.128Z,20.97
2019-02-19T10:12:39.783Z,20.33
2019-02-19T10:15:12.372Z,21.17
2019-02-19T10:17:44.057Z,22.23
2019-02-19T10:20:16.065Z,23.13
2019-02-19T10:22:47.731Z,23.80
2019-02-19T10:25:19.422Z,24.43
2019-02-19T10:27:51.308Z,23.77
2019-02-19T10:30:22.941Z,23.93
2019-02-19T10:32:54.615Z,21.43
2019-02-19T10:35:26.304Z,22.27
2019-02-19T10:37:57.970Z,21.17
2019-02-19T10:40:29.592Z,21.87
2019-02-19T10:43:01.195Z,20.97
2019-02-19T10:45:32.811Z,20.90
2019-02-19T10:48:04.473Z,20.63
2019-02-19T10:50:36.164Z,20.27
2019-02-19T10:53:07.767Z,18.33
2019-02-19T10:55:39.601Z,16.63
2019-02-19T10:58:11.628Z,16.73
2019-02-19T11:00:43.559Z,17.43
2019-02-19T11:03:15.170Z,16.83
2019-02-19T11:05:46.886Z,17.10
2019-02-19T11:08:18.496Z,18.10
2019-02-19T11:10:51.100Z,15.77
2019-02-19T11:13:22.775Z,17.00
2019-02-19T11:15:54.381Z,16.10
2019-02-19T11:18:28.672Z,16.13
2019-02-19T11:21:00.518Z,16.27
2019-02-19T11:23:33.737Z,16.03
2019-02-19T11:26:05.509Z,16.63
2019-02-19T11:28:37.128Z,16.77
2019-02-19T11:31:08.762Z,16.00
2019-02-19T11:33:40.583Z,17.00
2019-02-19T11:36:12.220Z,15.80
2019-02-19T11:38:43.823Z,16.63
2019-02-19T11:41:15.549Z,16.17
2019-02-19T11:43:47.172Z,16.63
2019-02-19T11:46:18.785Z,17.00
2019-02-19T11:48:50.391Z,16.30
2019-02-19T11:51:21.990Z,17.10
2019-02-19T11:53:53.602Z,16.97
2019-02-19T11:56:25.234Z,15.73
2019-02-19T11:58:56.904Z,15.43
2019-02-19T12:01:28.557Z,15.70
2019-02-19T12:04:01.627Z,18.43
2019-02-19T12:06:33.305Z,18.47
2019-02-19T12:09:05.712Z,19.90
2019-02-19T12:11:37.799Z,20.37
2019-02-19T12:14:09.616Z,19.17
2019-02-19T12:16:41.514Z,17.53
2019-02-19T12:19:13.393Z,18.80
2019-02-19T12:21:46.401Z,19.73
2019-02-19T12:24:18.002Z,19.47
2019-02-19T12:26:49.687Z,23.27
2019-02-19T12:29:21.291Z,23.17
2019-02-19T12:31:52.979Z,21.27
2019-02-19T12:34:24.584Z,19.23
2019-02-19T12:36:56.306Z,17.93
2019-02-19T12:39:27.991Z,23.77
2019-02-19T12:41:59.628Z,23.60
2019-02-19T12:44:31.303Z,26.03
2019-02-19T12:47:02.962Z,20.80
2019-02-19T12:49:34.639Z,20.47
2019-02-19T12:52:06.268Z,21.17
2019-02-19T12:54:37.875Z,24.70
2019-02-19T12:57:09.654Z,20.13
2019-02-19T12:59:41.508Z,23.83
2019-02-19T13:02:13.446Z,24.87
2019-02-19T13:04:45.047Z,26.83
2019-02-19T13:07:16.760Z,24.40
2019-02-19T13:09:48.373Z,19.90
2019-02-19T13:12:19.991Z,23.67
2019-02-19T13:14:51.615Z,28.97
2019-02-19T13:17:23.300Z,24.10
2019-02-19T13:19:55.002Z,22.80
2019-02-19T13:22:26.635Z,25.93
2019-02-19T13:24:58.258Z,25.77
2019-02-19T13:27:29.867Z,33.87
2019-02-19T13:30:01.488Z,23.90
2019-02-19T13:32:33.162Z,22.37
2019-02-19T13:35:08.923Z,26.03
2019-02-19T13:37:41.772Z,22.43
2019-02-19T13:40:14.153Z,29.17
2019-02-19T13:42:45.968Z,29.87
2019-02-19T13:45:17.718Z,24.60
2019-02-19T13:47:49.440Z,41.87
2019-02-19T13:50:21.534Z,26.30
2019-02-19T13:53:17.938Z,27.20
2019-02-19T13:55:52.230Z,29.50
2019-02-19T13:58:23.937Z,40.83
2019-02-19T14:00:55.542Z,28.43
2019-02-19T14:03:27.210Z,38.43
2019-02-19T14:05:58.797Z,48.53
2019-02-19T14:08:30.410Z,29.90
2019-02-19T14:11:02.009Z,36.50
2019-02-19T14:13:33.711Z,27.07
2019-02-19T14:16:18.158Z,31.73
2019-02-19T14:18:57.874Z,33.37
2019-02-19T14:21:51.009Z,30.50
2019-02-19T14:24:38.330Z,28.87
2019-02-19T14:27:31.823Z,41.23
2019-02-19T14:30:21.574Z,32.10
2019-02-19T14:33:09.221Z,29.90
2019-02-19T14:35:58.070Z,39.37
2019-02-19T14:39:03.823Z,49.47
2019-02-19T14:41:49.313Z,41.83
2019-02-19T14:44:41.196Z,31.80
2019-02-19T14:47:34.700Z,28.63
2019-02-19T14:50:35.526Z,31.27
2019-02-19T14:53:34.766Z,46.13
2019-02-19T14:56:34.078Z,30.13
2019-02-19T14:59:23.237Z,26.10
2019-02-19T15:02:12.255Z,35.30
2019-02-19T15:05:08.460Z,26.43
2019-02-19T15:08:04.966Z,81.37
2019-02-19T15:11:03.660Z,101.70
2019-02-19T15:13:48.286Z,51.03
2019-02-19T15:16:37.463Z,27.87
2019-02-19T15:19:20.175Z,23.70
2019-02-19T15:22:16.678Z,24.37
2019-02-19T15:25:09.969Z,61.57
2019-02-19T15:28:00.798Z,110.00
2019-02-19T15:31:00.269Z,30.97
2019-02-19T15:34:08.980Z,28.83
2019-02-19T15:36:58.494Z,31.23
2019-02-19T15:40:03.882Z,37.63
2019-02-19T15:42:54.002Z,38.50
2019-02-19T15:45:43.745Z,37.53
2019-02-19T15:48:32.859Z,48.17
2019-02-19T15:51:17.890Z,41.67
2019-02-19T15:54:07.131Z,25.77
2019-02-19T15:56:57.347Z,27.03
2019-02-19T15:59:46.595Z,27.03
2019-02-19T16:02:39.935Z,35.80
2019-02-19T16:05:30.964Z,23.27
2019-02-19T16:08:24.045Z,23.57
2019-02-19T16:11:21.656Z,30.13
2019-02-19T16:14:02.557Z,24.93
2019-02-19T16:16:43.763Z,25.30
2019-02-19T16:19:32.981Z,24.53
2019-02-19T16:22:20.586Z,31.77
2019-02-19T16:25:09.725Z,30.13
2019-02-19T16:28:18.642Z,26.50
2019-02-19T16:31:09.236Z,30.50
2019-02-19T16:34:08.672Z,29.37
2019-02-19T16:36:49.132Z,25.43
2019-02-19T16:39:38.268Z,32.53
2019-02-19T16:42:27.035Z,30.20
2019-02-19T16:45:26.617Z,32.20
2019-02-19T16:48:15.583Z,35.53
2019-02-19T16:51:12.207Z,33.13
2019-02-19T16:54:02.795Z,32.77
2019-02-19T16:56:56.226Z,32.40
2019-02-19T16:59:50.474Z,39.73
2019-02-19T17:02:43.865Z,39.87
2019-02-19T17:05:34.638Z,34.07
2019-02-19T17:08:15.550Z,35.93
2019-02-19T17:11:16.078Z,41.07
2019-02-19T17:14:07.134Z,28.10
2019-02-19T17:16:54.419Z,28.30
2019-02-19T17:19:56.843Z,32.57
2019-02-19T17:22:40.823Z,32.53
2019-02-19T17:25:37.372Z,30.07
2019-02-19T17:28:25.687Z,31.63
2019-02-19T17:31:17.837Z,30.73
2019-02-19T17:34:11.597Z,32.23
2019-02-19T17:37:04.887Z,34.57
2019-02-19T17:39:59.536Z,34.33
2019-02-19T17:42:51.636Z,30.30
2019-02-19T17:45:38.502Z,34.73
2019-02-19T17:48:27.623Z,31.90
2019-02-19T17:51:14.779Z,30.47
2019-02-19T17:54:08.004Z,29.73
2019-02-19T17:57:13.454Z,27.17
2019-02-19T18:00:04.728Z,23.47
2019-02-19T18:03:10.107Z,30.30
2019-02-19T18:06:08.653Z,32.00
2019-02-19T18:09:01.878Z,26.10
2019-02-19T18:11:52.799Z,23.73
2019-02-19T18:14:44.329Z,22.63
2019-02-19T18:17:29.437Z,20.90
2019-02-19T18:20:01.247Z,17.73
2019-02-19T18:22:34.656Z,19.63
2019-02-19T18:25:07.168Z,19.27
2019-02-19T18:27:38.862Z,19.00
2019-02-19T18:30:10.489Z,18.40
2019-02-19T18:32:42.166Z,21.03
2019-02-19T18:35:14.397Z,17.93
2019-02-19T18:37:46.227Z,35.87
2019-02-19T18:40:18.163Z,40.37
2019-02-19T18:42:50.146Z,29.33
2019-02-19T18:45:22.565Z,27.67
2019-02-19T18:47:54.228Z,28.90
2019-02-19T18:50:26.398Z,37.63
2019-02-19T18:52:58.510Z,27.67
2019-02-19T18:55:33.423Z,33.83
2019-02-19T18:58:05.440Z,35.70
2019-02-19T19:00:37.120Z,28.63
2019-02-19T19:03:08.996Z,22.23
2019-02-19T19:05:40.840Z,22.97
2019-02-19T19:08:12.665Z,23.80
2019-02-19T19:10:44.562Z,25.27
2019-02-19T19:13:16.353Z,24.20
2019-02-19T19:15:48.322Z,22.47
2019-02-19T19:18:21.205Z,21.00
2019-02-19T19:20:55.654Z,20.60
2019-02-19T19:23:28.018Z,15.33
2019-02-19T19:25:59.714Z,17.90
2019-02-19T19:28:31.612Z,17.23
2019-02-19T19:31:03.603Z,24.50
2019-02-19T19:33:35.920Z,15.50
2019-02-19T19:36:07.871Z,15.93
2019-02-19T19:38:39.687Z,15.70
2019-02-19T19:41:12.782Z,17.27
2019-02-19T19:43:44.585Z,16.40
2019-02-19T19:46:16.548Z,41.40
2019-02-19T19:48:49.454Z,21.90
2019-02-19T19:51:21.509Z,27.93
2019-02-19T19:53:53.848Z,355.87
2019-02-19T19:56:27.102Z,15.27
2019-02-19T19:58:58.924Z,33.20
2019-02-19T20:01:32.053Z,28.50
2019-02-19T20:04:04.584Z,24.40
2019-02-19T20:06:36.722Z,19.93
2019-02-19T20:09:08.788Z,15.33
2019-02-19T20:11:42.049Z,16.47
2019-02-19T20:14:14.364Z,15.73
2019-02-19T20:16:46.319Z,17.47
2019-02-19T20:19:18.947Z,19.77
2019-02-19T20:21:51.087Z,22.97
2019-02-19T20:24:23.545Z,22.80
2019-02-19T20:26:56.285Z,26.37
2019-02-19T20:29:28.944Z,21.03
2019-02-19T20:32:01.052Z,15.10
2019-02-19T20:34:32.958Z,17.17
2019-02-19T20:37:05.065Z,17.23
2019-02-19T20:39:37.746Z,20.60
2019-02-19T20:42:10.913Z,24.17
2019-02-19T20:44:44.063Z,22.07
2019-02-19T20:47:16.591Z,23.40
2019-02-19T20:49:48.243Z,20.43
2019-02-19T20:52:20.546Z,21.43
2019-02-19T20:54:52.248Z,22.60
2019-02-19T20:57:24.307Z,19.77
2019-02-19T20:59:56.021Z,21.33
2019-02-19T21:02:30.490Z,15.93
2019-02-19T21:05:02.279Z,17.07
2019-02-19T21:07:35.518Z,16.33
2019-02-19T21:10:09.705Z,13.83
2019-02-19T21:12:44.785Z,13.73
2019-02-19T21:15:16.576Z,14.93
2019-02-19T21:17:48.856Z,13.90
2019-02-19T21:20:22.106Z,12.80
2019-02-19T21:22:55.100Z,14.67
2019-02-19T21:25:31.056Z,12.77
2019-02-19T21:28:00.771Z,13.73
2019-02-19T21:30:32.866Z,14.50
2019-02-19T21:33:05.167Z,14.67
2019-02-19T21:35:37.297Z,13.80
2019-02-19T21:38:09.323Z,13.23
2019-02-19T21:40:41.078Z,14.23
2019-02-19T21:43:12.839Z,13.27
2019-02-19T21:45:44.605Z,14.30
2019-02-19T21:48:17.837Z,14.70
2019-02-19T21:50:51.159Z,14.07
2019-02-19T21:53:23.509Z,16.27
2019-02-19T21:55:55.200Z,14.63
2019-02-19T21:58:26.941Z,15.40
2019-02-19T22:00:59.228Z,14.23
2019-02-19T22:03:31.258Z,12.43
2019-02-19T22:06:06.760Z,12.20
2019-02-19T22:08:39.679Z,13.93
2019-02-19T22:11:11.368Z,13.50
2019-02-19T22:13:43.287Z,14.90
2019-02-19T22:16:14.968Z,14.67
2019-02-19T22:18:46.767Z,15.37
2019-02-19T22:21:37.394Z,15.73
2019-02-19T22:24:09.506Z,16.23
2019-02-19T22:26:41.240Z,17.40
2019-02-19T22:29:12.938Z,15.27
2019-02-19T22:31:44.711Z,15.00
2019-02-19T22:34:16.908Z,14.80
2019-02-19T22:36:50.136Z,13.33
2019-02-19T22:39:21.828Z,13.03
2019-02-19T22:41:53.510Z,11.93
2019-02-19T22:44:25.190Z,12.87
2019-02-19T22:46:58.712Z,12.53
2019-02-19T22:49:30.396Z,14.93
2019-02-19T22:52:02.063Z,12.27
2019-02-19T22:54:43.993Z,20.47
2019-02-19T22:57:16.386Z,15.87
2019-02-19T22:59:48.043Z,16.80
2019-02-19T23:02:24.106Z,17.40
2019-02-19T23:04:56.376Z,15.10
2019-02-19T23:07:28.140Z,13.80
2019-02-19T23:10:01.300Z,9.83
2019-02-19T23:12:34.263Z,8.97
2019-02-19T23:15:06.130Z,10.93
2019-02-19T23:17:38.355Z,11.20
2019-02-19T23:20:10.022Z,11.40
2019-02-19T23:22:41.768Z,12.47
2019-02-19T23:25:14.048Z,11.17
2019-02-19T23:27:47.120Z,13.63
2019-02-19T23:30:18.785Z,12.23
2019-02-19T23:32:50.451Z,12.37
2019-02-19T23:35:38.729Z,9.60
2019-02-19T23:38:10.394Z,10.17
2019-02-19T23:40:42.050Z,10.03
2019-02-19T23:43:13.632Z,9.80
2019-02-19T23:45:45.469Z,11.00
2019-02-19T23:48:17.119Z,10.97
2019-02-19T23:50:48.783Z,10.00
2019-02-19T23:53:20.439Z,9.30
2019-02-19T23:55:52.012Z,9.27
2019-02-19T23:58:23.665Z,9.43
